createdAt,value
2017-07-18T00:01:36.949Z,19.90
2017-07-18T00:04:04.418Z,19.90
2017-07-18T00:06:31.914Z,19.90
2017-07-18T00:09:00.149Z,19.90
2017-07-18T00:11:27.617Z,19.80
2017-07-18T00:13:55.109Z,19.90
2017-07-18T00:16:22.578Z,20.00
2017-07-18T00:18:50.061Z,20.10
2017-07-18T00:21:17.553Z,20.10
2017-07-18T00:23:45.025Z,20.10
2017-07-18T00:26:13.545Z,20.10
2017-07-18T00:28:41.393Z,20.10
2017-07-18T00:31:08.865Z,20.10
2017-07-18T00:33:36.337Z,20.00
2017-07-18T00:36:03.833Z,20.00
2017-07-18T00:38:32.071Z,19.90
2017-07-18T00:40:59.541Z,19.90
2017-07-18T00:43:27.800Z,19.90
2017-07-18T00:45:55.272Z,19.90
2017-07-18T00:48:22.746Z,19.90
2017-07-18T00:50:50.240Z,19.80
2017-07-18T00:53:18.026Z,19.80
2017-07-18T00:55:45.510Z,19.70
2017-07-18T00:58:13.029Z,19.70
2017-07-18T01:00:40.502Z,19.60
2017-07-18T01:03:07.974Z,19.60
2017-07-18T01:05:35.873Z,19.60
2017-07-18T01:08:04.110Z,19.50
2017-07-18T01:10:31.582Z,19.50
2017-07-18T01:12:59.077Z,19.40
2017-07-18T01:15:27.533Z,19.10
2017-07-18T01:17:55.002Z,19.10
2017-07-18T01:20:23.262Z,19.10
2017-07-18T01:22:50.734Z,19.00
2017-07-18T01:25:19.259Z,19.00
2017-07-18T01:27:46.763Z,19.00
2017-07-18T01:30:14.482Z,19.00
2017-07-18T01:32:41.954Z,19.00
2017-07-18T01:35:09.467Z,18.90
2017-07-18T01:37:36.943Z,18.90
2017-07-18T01:40:04.466Z,18.90
2017-07-18T01:42:32.734Z,18.80
2017-07-18T01:45:00.209Z,18.80
2017-07-18T01:47:28.441Z,18.70
2017-07-18T01:49:56.029Z,18.70
2017-07-18T01:52:24.275Z,18.60
2017-07-18T01:54:51.745Z,18.60
2017-07-18T01:57:19.256Z,18.60
2017-07-18T01:59:46.728Z,18.60
2017-07-18T02:02:14.451Z,18.50
2017-07-18T02:04:43.090Z,18.50
2017-07-18T02:07:11.369Z,18.40
2017-07-18T02:09:38.842Z,18.30
2017-07-18T02:12:06.725Z,18.30
2017-07-18T02:14:34.971Z,18.20
2017-07-18T02:17:02.440Z,18.20
2017-07-18T02:19:29.937Z,18.20
2017-07-18T02:21:57.405Z,18.00
2017-07-18T02:24:24.885Z,18.00
2017-07-18T02:26:52.386Z,18.00
2017-07-18T02:29:20.629Z,17.80
2017-07-18T02:31:48.101Z,17.80
2017-07-18T02:34:15.679Z,17.70
2017-07-18T02:36:43.938Z,17.70
2017-07-18T02:39:11.583Z,17.60
2017-07-18T02:41:39.559Z,17.60
2017-07-18T02:44:07.178Z,17.60
2017-07-18T02:46:34.743Z,17.50
2017-07-18T02:49:02.262Z,17.50
2017-07-18T02:51:30.534Z,17.40
2017-07-18T02:53:58.781Z,17.50
2017-07-18T02:56:26.274Z,17.50
2017-07-18T02:58:54.733Z,17.40
2017-07-18T03:01:22.457Z,17.40
2017-07-18T03:03:49.961Z,17.30
2017-07-18T03:06:17.438Z,17.30
2017-07-18T03:08:45.685Z,17.30
2017-07-18T03:11:14.386Z,17.30
2017-07-18T03:13:42.629Z,17.20
2017-07-18T03:16:10.101Z,17.20
2017-07-18T03:18:37.606Z,17.20
2017-07-18T03:21:05.081Z,17.10
2017-07-18T03:23:32.557Z,17.10
2017-07-18T03:26:00.055Z,17.00
2017-07-18T03:28:27.554Z,17.00
2017-07-18T03:30:55.042Z,16.90
2017-07-18T03:33:22.549Z,16.90
2017-07-18T03:35:50.342Z,16.90
2017-07-18T03:38:17.822Z,16.90
2017-07-18T03:40:45.336Z,16.90
2017-07-18T03:43:12.861Z,16.90
2017-07-18T03:45:41.101Z,16.80
2017-07-18T03:48:08.602Z,16.80
2017-07-18T03:50:36.851Z,16.80
2017-07-18T03:53:04.321Z,16.80
2017-07-18T03:55:32.585Z,16.80
2017-07-18T03:58:00.057Z,16.80
2017-07-18T04:00:28.336Z,16.80
2017-07-18T04:02:56.610Z,16.80
2017-07-18T04:05:24.851Z,16.80
2017-07-18T04:07:52.325Z,16.80
2017-07-18T04:10:19.826Z,16.80
2017-07-18T04:12:47.306Z,16.80
2017-07-18T04:15:14.783Z,16.80
2017-07-18T04:17:42.289Z,16.80
2017-07-18T04:20:09.762Z,16.80
2017-07-18T04:22:37.282Z,16.80
2017-07-18T04:25:05.551Z,16.90
2017-07-18T04:27:34.621Z,17.00
2017-07-18T04:30:02.112Z,17.00
2017-07-18T04:32:30.376Z,17.10
2017-07-18T04:34:58.702Z,17.10
2017-07-18T04:37:26.178Z,17.10
2017-07-18T04:39:53.673Z,17.10
2017-07-18T04:42:21.931Z,17.30
2017-07-18T04:44:49.402Z,17.20
2017-07-18T04:47:16.915Z,17.40
2017-07-18T04:49:44.397Z,17.50
2017-07-18T04:52:11.906Z,17.60
2017-07-18T04:54:39.689Z,17.50
2017-07-18T04:57:07.165Z,17.50
2017-07-18T04:59:34.646Z,17.50
2017-07-18T05:02:02.146Z,17.60
2017-07-18T05:04:29.621Z,17.60
2017-07-18T05:06:57.179Z,17.70
2017-07-18T05:09:24.693Z,17.90
2017-07-18T05:11:52.937Z,19.10
2017-07-18T05:14:20.463Z,19.10
2017-07-18T05:16:47.957Z,20.20
2017-07-18T05:19:15.430Z,21.00
2017-07-18T05:21:42.905Z,21.40
2017-07-18T05:24:10.402Z,22.10
2017-07-18T05:26:37.915Z,22.40
2017-07-18T05:29:06.162Z,22.40
2017-07-18T05:31:33.682Z,22.40
2017-07-18T05:34:01.149Z,22.50
2017-07-18T05:36:28.849Z,23.10
2017-07-18T05:38:56.338Z,23.80
2017-07-18T05:41:23.849Z,24.40
2017-07-18T05:43:51.318Z,25.20
2017-07-18T05:46:19.590Z,26.20
2017-07-18T05:48:47.062Z,26.20
2017-07-18T05:51:15.301Z,26.50
2017-07-18T05:53:42.793Z,26.50
2017-07-18T05:56:10.269Z,25.90
2017-07-18T05:58:37.777Z,25.40
2017-07-18T06:01:05.490Z,24.90
2017-07-18T06:03:37.172Z,25.50
2017-07-18T06:06:04.918Z,26.40
2017-07-18T06:08:32.441Z,26.90
2017-07-18T06:10:59.914Z,27.10
2017-07-18T06:13:28.169Z,27.50
2017-07-18T06:15:55.641Z,27.50
2017-07-18T06:18:23.882Z,27.10
2017-07-18T06:20:51.447Z,27.10
2017-07-18T06:23:19.722Z,27.10
2017-07-18T06:25:48.445Z,26.50
2017-07-18T06:28:15.998Z,26.20
2017-07-18T06:30:44.298Z,26.00
2017-07-18T06:33:12.641Z,26.60
2017-07-18T06:35:40.146Z,26.60
2017-07-18T06:38:07.618Z,26.60
2017-07-18T06:40:35.093Z,26.70
2017-07-18T06:43:02.681Z,26.90
2017-07-18T06:45:30.925Z,26.60
2017-07-18T06:47:58.398Z,26.60
2017-07-18T06:50:26.115Z,26.80
2017-07-18T06:52:53.585Z,26.90
2017-07-18T06:55:21.052Z,27.10
2017-07-18T06:57:48.965Z,27.30
2017-07-18T07:00:17.202Z,28.10
2017-07-18T07:02:44.674Z,28.10
2017-07-18T07:05:12.499Z,28.30
2017-07-18T07:07:39.981Z,28.70
2017-07-18T07:10:07.468Z,29.10
2017-07-18T07:12:35.731Z,28.70
2017-07-18T07:15:03.203Z,28.70
2017-07-18T07:17:31.453Z,29.40
2017-07-18T07:19:59.181Z,29.30
2017-07-18T07:22:26.654Z,29.60
2017-07-18T07:24:54.126Z,29.60
2017-07-18T07:27:21.621Z,29.30
2017-07-18T07:29:49.925Z,29.00
2017-07-18T07:32:17.407Z,29.00
2017-07-18T07:34:44.909Z,29.10
2017-07-18T07:37:13.218Z,29.50
2017-07-18T07:39:40.693Z,29.40
2017-07-18T07:42:08.194Z,29.70
2017-07-18T07:44:35.722Z,30.10
2017-07-18T07:47:03.194Z,30.10
2017-07-18T07:49:30.684Z,29.80
2017-07-18T07:51:58.355Z,29.50
2017-07-18T07:54:26.688Z,30.20
2017-07-18T07:56:54.210Z,30.20
2017-07-18T07:59:21.721Z,30.40
2017-07-18T08:01:50.043Z,29.90
2017-07-18T08:04:17.554Z,29.80
2017-07-18T08:06:45.794Z,30.20
2017-07-18T08:09:13.265Z,30.20
2017-07-18T08:11:40.763Z,30.30
2017-07-18T08:14:08.233Z,30.60
2017-07-18T08:16:35.712Z,31.30
2017-07-18T08:19:03.312Z,31.40
2017-07-18T08:21:31.549Z,31.80
2017-07-18T08:23:59.017Z,31.80
2017-07-18T08:26:26.509Z,32.10
2017-07-18T08:28:55.033Z,32.30
2017-07-18T08:31:22.504Z,32.20
2017-07-18T08:33:50.405Z,31.80
2017-07-18T08:36:17.876Z,31.80
2017-07-18T08:38:45.346Z,32.10
2017-07-18T08:41:12.862Z,31.80
2017-07-18T08:43:40.333Z,32.00
2017-07-18T08:46:08.582Z,31.20
2017-07-18T08:48:36.077Z,31.20
2017-07-18T08:51:04.317Z,30.20
2017-07-18T08:53:32.055Z,30.30
2017-07-18T08:55:59.554Z,30.40
2017-07-18T08:58:27.029Z,30.30
2017-07-18T09:00:55.269Z,31.30
2017-07-18T09:03:22.761Z,31.30
2017-07-18T09:05:51.005Z,30.80
2017-07-18T09:08:18.474Z,30.80
2017-07-18T09:10:45.965Z,31.40
2017-07-18T09:13:13.437Z,31.40
2017-07-18T09:15:40.910Z,31.30
2017-07-18T09:18:08.410Z,31.00
2017-07-18T09:20:36.657Z,30.40
2017-07-18T09:23:04.196Z,30.40
2017-07-18T09:25:31.901Z,30.80
2017-07-18T09:27:59.369Z,31.20
2017-07-18T09:30:27.739Z,31.30
2017-07-18T09:32:56.233Z,31.40
2017-07-18T09:35:24.472Z,31.40
2017-07-18T09:37:51.941Z,31.40
2017-07-18T09:40:19.429Z,31.30
2017-07-18T09:42:46.902Z,31.90
2017-07-18T09:45:14.379Z,32.20
2017-07-18T09:47:41.879Z,32.40
2017-07-18T09:50:09.370Z,32.30
2017-07-18T09:52:36.846Z,32.60
2017-07-18T09:55:04.568Z,32.80
2017-07-18T09:57:32.041Z,32.70
2017-07-18T09:59:59.517Z,32.40
2017-07-18T10:02:27.161Z,32.50
2017-07-18T10:04:54.634Z,32.50
2017-07-18T10:07:22.112Z,32.30
2017-07-18T10:09:49.609Z,32.10
2017-07-18T10:12:17.845Z,32.20
2017-07-18T10:14:45.313Z,32.20
2017-07-18T10:17:12.801Z,32.60
2017-07-18T10:19:40.284Z,32.70
2017-07-18T10:22:07.970Z,33.10
2017-07-18T10:24:35.473Z,33.00
2017-07-18T10:27:03.723Z,33.60
2017-07-18T10:29:32.583Z,33.60
2017-07-18T10:32:02.339Z,33.70
2017-07-18T10:34:31.716Z,34.30
2017-07-18T10:37:00.555Z,34.30
2017-07-18T10:39:29.739Z,34.00
2017-07-18T10:41:59.023Z,33.60
2017-07-18T10:44:28.412Z,33.10
2017-07-18T10:46:58.253Z,32.50
2017-07-18T10:49:28.271Z,32.60
2017-07-18T10:51:57.548Z,33.20
2017-07-18T10:54:27.148Z,33.60
2017-07-18T10:56:56.030Z,34.20
2017-07-18T10:59:26.015Z,33.90
2017-07-18T11:01:56.401Z,32.70
2017-07-18T11:04:24.756Z,32.70
2017-07-18T11:06:54.449Z,32.00
2017-07-18T11:09:25.465Z,31.60
2017-07-18T11:11:54.896Z,31.60
2017-07-18T11:14:24.772Z,31.60
2017-07-18T11:16:54.389Z,31.90
2017-07-18T11:19:23.683Z,32.10
2017-07-18T11:21:52.194Z,32.20
2017-07-18T11:24:21.562Z,32.40
2017-07-18T11:26:51.273Z,32.70
2017-07-18T11:29:20.407Z,32.80
2017-07-18T11:31:49.460Z,32.70
2017-07-18T11:34:18.750Z,32.90
2017-07-18T11:36:47.897Z,33.50
2017-07-18T11:39:17.739Z,34.00
2017-07-18T11:41:47.358Z,34.10
2017-07-18T11:44:16.794Z,33.40
2017-07-18T11:46:46.172Z,32.70
2017-07-18T11:49:17.586Z,33.20
2017-07-18T11:51:46.867Z,33.90
2017-07-18T11:54:16.740Z,34.00
2017-07-18T11:56:45.549Z,34.50
2017-07-18T11:59:15.209Z,34.50
2017-07-18T12:01:44.762Z,34.70
2017-07-18T12:04:13.711Z,34.70
2017-07-18T12:06:43.079Z,34.30
2017-07-18T12:09:12.828Z,34.30
2017-07-18T12:11:41.067Z,34.30
2017-07-18T12:14:09.940Z,34.00
2017-07-18T12:16:39.459Z,33.90
2017-07-18T12:19:12.083Z,33.90
2017-07-18T12:21:40.286Z,33.70
2017-07-18T12:24:09.845Z,33.40
2017-07-18T12:26:39.302Z,32.70
2017-07-18T12:29:08.812Z,32.50
2017-07-18T12:31:38.500Z,32.50
2017-07-18T12:34:07.541Z,32.00
2017-07-18T12:36:37.396Z,31.60
2017-07-18T12:39:06.044Z,31.60
2017-07-18T12:41:35.305Z,31.60
2017-07-18T12:44:04.395Z,31.40
2017-07-18T12:46:33.519Z,31.40
2017-07-18T12:49:03.886Z,31.50
2017-07-18T12:51:33.283Z,31.50
2017-07-18T12:54:02.743Z,31.40
2017-07-18T12:56:32.010Z,31.60
2017-07-18T12:59:01.480Z,31.60
2017-07-18T13:01:31.215Z,31.40
2017-07-18T13:04:01.360Z,31.20
2017-07-18T13:06:31.295Z,31.50
2017-07-18T13:09:00.683Z,31.50
2017-07-18T13:11:29.939Z,31.60
2017-07-18T13:14:00.460Z,31.40
2017-07-18T13:16:30.179Z,31.30
2017-07-18T13:18:59.595Z,31.40
2017-07-18T13:21:28.983Z,31.20
2017-07-18T13:23:58.681Z,31.00
2017-07-18T13:26:28.670Z,30.90
2017-07-18T13:28:58.695Z,30.80
2017-07-18T13:31:29.005Z,30.30
2017-07-18T13:33:59.065Z,30.00
2017-07-18T13:36:29.561Z,29.80
2017-07-18T13:38:59.283Z,29.90
2017-07-18T13:41:28.249Z,30.30
2017-07-18T13:43:57.781Z,30.90
2017-07-18T13:46:27.046Z,30.90
2017-07-18T13:48:57.144Z,30.30
2017-07-18T13:51:26.657Z,30.30
2017-07-18T13:53:56.714Z,30.20
2017-07-18T13:56:26.420Z,30.10
2017-07-18T13:58:57.229Z,29.80
2017-07-18T14:01:28.161Z,29.80
2017-07-18T14:03:58.276Z,30.00
2017-07-18T14:06:29.315Z,30.10
2017-07-18T14:08:59.188Z,30.10
2017-07-18T14:11:27.891Z,30.20
2017-07-18T14:13:58.528Z,30.20
2017-07-18T14:16:28.177Z,30.20
2017-07-18T14:18:58.700Z,30.20
2017-07-18T14:21:28.043Z,30.40
2017-07-18T14:23:58.220Z,30.60
2017-07-18T14:26:27.942Z,30.60
2017-07-18T14:28:57.501Z,30.50
2017-07-18T14:31:27.177Z,30.60
2017-07-18T14:33:56.351Z,30.60
2017-07-18T14:36:23.875Z,30.60
2017-07-18T14:38:51.613Z,30.50
2017-07-18T14:41:19.929Z,30.20
2017-07-18T14:43:47.545Z,30.20
2017-07-18T14:46:15.045Z,30.40
2017-07-18T14:48:42.533Z,30.40
2017-07-18T14:51:10.773Z,30.10
2017-07-18T14:53:38.270Z,30.10
2017-07-18T14:56:06.512Z,30.10
2017-07-18T14:58:33.984Z,30.10
2017-07-18T15:01:01.476Z,30.20
2017-07-18T15:03:28.946Z,30.20
2017-07-18T15:05:56.559Z,30.20
2017-07-18T15:08:24.050Z,30.20
2017-07-18T15:10:51.521Z,30.20
2017-07-18T15:13:18.997Z,30.10
2017-07-18T15:15:46.489Z,30.10
2017-07-18T15:18:13.961Z,30.10
2017-07-18T15:20:42.211Z,30.00
2017-07-18T15:23:09.722Z,30.00
2017-07-18T15:25:37.188Z,29.90
2017-07-18T15:28:04.661Z,29.90
2017-07-18T15:30:32.163Z,30.00
2017-07-18T15:33:00.454Z,30.20
2017-07-18T15:35:28.034Z,30.20
2017-07-18T15:37:55.529Z,30.20
2017-07-18T15:40:23.001Z,30.20
2017-07-18T15:42:50.567Z,30.30
2017-07-18T15:45:18.840Z,30.30
2017-07-18T15:47:47.082Z,30.20
2017-07-18T15:50:14.557Z,30.20
2017-07-18T15:52:42.085Z,30.30
2017-07-18T15:55:09.562Z,30.30
2017-07-18T15:57:37.298Z,30.10
2017-07-18T16:00:04.805Z,30.00
2017-07-18T16:02:33.062Z,30.20
2017-07-18T16:05:00.533Z,30.20
2017-07-18T16:07:28.581Z,30.10
2017-07-18T16:09:56.212Z,30.10
2017-07-18T16:12:23.683Z,30.10
2017-07-18T16:14:51.181Z,30.20
2017-07-18T16:17:18.661Z,30.20
2017-07-18T16:19:46.129Z,30.20
2017-07-18T16:22:13.658Z,30.20
2017-07-18T16:24:42.009Z,30.10
2017-07-18T16:27:09.539Z,30.10
2017-07-18T16:29:37.040Z,30.10
2017-07-18T16:32:04.514Z,29.90
2017-07-18T16:34:32.758Z,29.80
2017-07-18T16:37:01.235Z,29.80
2017-07-18T16:39:29.141Z,29.90
2017-07-18T16:41:57.377Z,29.90
2017-07-18T16:44:24.909Z,29.90
2017-07-18T16:46:52.377Z,29.80
2017-07-18T16:49:19.857Z,29.90
2017-07-18T16:51:47.373Z,29.90
2017-07-18T16:54:14.853Z,29.90
2017-07-18T16:56:42.331Z,29.90
2017-07-18T16:59:09.837Z,29.90
2017-07-18T17:01:37.310Z,29.80
2017-07-18T17:04:04.801Z,29.90
2017-07-18T17:06:33.312Z,29.80
2017-07-18T17:09:00.790Z,29.80
2017-07-18T17:11:28.261Z,29.80
2017-07-18T17:13:55.754Z,29.70
2017-07-18T17:16:24.017Z,29.70
2017-07-18T17:18:52.303Z,29.70
2017-07-18T17:21:20.654Z,29.60
2017-07-18T17:23:48.408Z,29.60
2017-07-18T17:26:15.905Z,29.60
2017-07-18T17:28:43.535Z,29.60
2017-07-18T17:31:11.034Z,29.60
2017-07-18T17:33:39.278Z,29.60
2017-07-18T17:36:06.831Z,29.60
2017-07-18T17:38:34.305Z,29.60
2017-07-18T17:41:02.064Z,29.60
2017-07-18T17:43:29.582Z,29.50
2017-07-18T17:45:57.050Z,29.40
2017-07-18T17:48:25.020Z,29.40
2017-07-18T17:50:52.520Z,29.40
2017-07-18T17:53:19.989Z,29.30
2017-07-18T17:55:47.489Z,29.20
2017-07-18T17:58:14.985Z,29.20
2017-07-18T18:00:42.463Z,29.20
2017-07-18T18:03:10.701Z,29.20
2017-07-18T18:05:38.211Z,29.10
2017-07-18T18:08:05.693Z,29.00
2017-07-18T18:10:33.461Z,29.00
2017-07-18T18:13:00.965Z,29.00
2017-07-18T18:15:28.772Z,28.90
2017-07-18T18:17:56.253Z,28.80
2017-07-18T18:20:24.002Z,28.80
2017-07-18T18:22:51.473Z,28.80
2017-07-18T18:25:18.943Z,28.80
2017-07-18T18:27:46.441Z,28.80
2017-07-18T18:30:14.677Z,28.70
2017-07-18T18:32:42.145Z,28.60
2017-07-18T18:35:09.637Z,28.60
2017-07-18T18:37:37.128Z,28.50
2017-07-18T18:40:04.617Z,28.50
2017-07-18T18:42:32.348Z,28.40
2017-07-18T18:45:00.645Z,28.40
2017-07-18T18:47:28.118Z,28.40
2017-07-18T18:49:55.610Z,28.30
2017-07-18T18:52:23.126Z,28.20
2017-07-18T18:54:50.640Z,28.10
2017-07-18T18:57:18.149Z,28.10
2017-07-18T18:59:46.077Z,28.00
2017-07-18T19:02:13.556Z,27.90
2017-07-18T19:04:41.049Z,27.70
2017-07-18T19:07:09.289Z,27.50
2017-07-18T19:09:36.943Z,27.50
2017-07-18T19:12:04.434Z,27.40
2017-07-18T19:14:32.909Z,27.30
2017-07-18T19:17:01.361Z,27.20
2017-07-18T19:19:28.849Z,27.20
2017-07-18T19:21:57.086Z,27.10
2017-07-18T19:24:24.573Z,27.00
2017-07-18T19:26:52.065Z,27.00
2017-07-18T19:29:19.755Z,26.90
2017-07-18T19:31:47.237Z,26.80
2017-07-18T19:34:14.734Z,26.70
2017-07-18T19:36:42.577Z,26.60
2017-07-18T19:39:10.813Z,26.40
2017-07-18T19:41:38.308Z,26.40
2017-07-18T19:44:06.583Z,26.20
2017-07-18T19:46:34.859Z,26.10
2017-07-18T19:49:03.261Z,25.90
2017-07-18T19:51:30.770Z,25.90
2017-07-18T19:53:58.245Z,25.80
2017-07-18T19:56:25.756Z,25.70
2017-07-18T19:58:53.245Z,25.70
2017-07-18T20:01:20.736Z,25.60
2017-07-18T20:03:48.997Z,25.60
2017-07-18T20:06:16.469Z,25.60
2017-07-18T20:08:44.709Z,25.40
2017-07-18T20:11:12.241Z,25.40
2017-07-18T20:13:39.929Z,25.40
2017-07-18T20:16:07.437Z,25.40
2017-07-18T20:18:34.938Z,25.30
2017-07-18T20:21:02.409Z,25.30
2017-07-18T20:23:30.668Z,25.30
2017-07-18T20:25:58.236Z,25.20
2017-07-18T20:28:25.726Z,25.20
2017-07-18T20:30:53.969Z,25.20
2017-07-18T20:33:21.475Z,25.20
2017-07-18T20:35:48.958Z,25.20
2017-07-18T20:38:16.437Z,25.20
2017-07-18T20:40:43.999Z,25.10
2017-07-18T20:43:11.530Z,25.10
2017-07-18T20:45:38.998Z,25.00
2017-07-18T20:48:06.744Z,24.90
2017-07-18T20:50:34.228Z,24.90
2017-07-18T20:53:01.697Z,24.80
2017-07-18T20:55:29.525Z,24.80
2017-07-18T20:57:57.498Z,24.80
2017-07-18T21:00:25.261Z,24.80
2017-07-18T21:02:52.784Z,24.90
2017-07-18T21:05:21.036Z,24.80
2017-07-18T21:07:49.289Z,24.70
2017-07-18T21:10:16.789Z,24.70
2017-07-18T21:12:45.029Z,24.50
2017-07-18T21:15:12.505Z,24.40
2017-07-18T21:17:40.021Z,24.40
2017-07-18T21:20:07.502Z,24.30
2017-07-18T21:22:34.973Z,24.20
2017-07-18T21:25:02.469Z,24.20
2017-07-18T21:27:29.949Z,24.10
2017-07-18T21:29:57.425Z,24.10
2017-07-18T21:32:24.933Z,24.10
2017-07-18T21:34:52.405Z,24.10
2017-07-18T21:37:19.894Z,24.00
2017-07-18T21:39:47.385Z,23.90
2017-07-18T21:42:15.622Z,23.70
2017-07-18T21:44:43.101Z,23.70
2017-07-18T21:47:10.825Z,23.60
2017-07-18T21:49:38.585Z,23.50
2017-07-18T21:52:06.130Z,23.50
2017-07-18T21:54:33.621Z,23.50
2017-07-18T21:57:01.091Z,23.50
2017-07-18T21:59:28.634Z,23.50
2017-07-18T22:01:56.144Z,23.60
2017-07-18T22:04:24.376Z,23.70
2017-07-18T22:06:51.841Z,23.70
2017-07-18T22:09:19.337Z,23.80
2017-07-18T22:11:46.818Z,23.80
2017-07-18T22:14:14.290Z,23.80
2017-07-18T22:16:41.781Z,23.70
2017-07-18T22:19:09.431Z,23.70
2017-07-18T22:21:36.898Z,23.60
2017-07-18T22:24:04.388Z,23.60
2017-07-18T22:26:31.857Z,23.50
2017-07-18T22:28:59.337Z,23.40
2017-07-18T22:31:26.839Z,23.40
2017-07-18T22:33:55.109Z,23.30
2017-07-18T22:36:22.597Z,23.30
2017-07-18T22:38:50.097Z,23.20
2017-07-18T22:41:17.601Z,23.10
2017-07-18T22:43:45.069Z,23.10
2017-07-18T22:46:12.606Z,23.10
2017-07-18T22:48:40.845Z,22.90
2017-07-18T22:51:08.313Z,22.90
2017-07-18T22:53:35.804Z,22.90
2017-07-18T22:56:03.289Z,22.80
2017-07-18T22:58:30.843Z,22.80
2017-07-18T23:00:58.334Z,22.70
2017-07-18T23:03:25.805Z,22.60
2017-07-18T23:05:53.281Z,22.60
2017-07-18T23:08:21.537Z,22.40
2017-07-18T23:10:49.013Z,22.30
2017-07-18T23:13:17.512Z,22.10
2017-07-18T23:15:45.034Z,22.10
2017-07-18T23:18:13.291Z,22.00
2017-07-18T23:20:40.765Z,22.00
2017-07-18T23:23:08.253Z,22.00
2017-07-18T23:25:35.726Z,21.90
2017-07-18T23:28:03.196Z,21.90
2017-07-18T23:30:30.689Z,21.90
2017-07-18T23:32:58.161Z,21.90
2017-07-18T23:35:26.410Z,21.80
2017-07-18T23:37:54.148Z,21.80
2017-07-18T23:40:24.828Z,21.80
2017-07-18T23:42:54.617Z,21.70
2017-07-18T23:45:23.462Z,21.50
2017-07-18T23:47:50.938Z,21.50
2017-07-18T23:50:18.433Z,21.30
2017-07-18T23:52:45.900Z,21.10
2017-07-18T23:55:14.133Z,20.80
2017-07-18T23:57:41.637Z,20.80
